Time;durP1;ratioP1;P1;durP2;ratioP2;P2;SDS_P1;SDS_P2;PMS_P1;PMS_P2;Temp;Humidity;BMP_temperature;BMP_pressure;BME280_temperature;BME280_humidity;BME280_pressure;Samples;Min_cycle;Max_cycle;Signal;HPM_P1;HPM_P2
2022/04/30 00:00:58;;;;;;;0.00;0.00;;;;;;;5.97;73.41;102868.19;10545057;28;20118;-77
2022/04/30 00:06:00;;;;;;;0.00;0.00;;;;;;;5.98;72.95;102864.84;10545207;28;20047;-76
2022/04/30 00:11:01;;;;;;;0.00;0.00;;;;;;;5.79;73.54;102862.56;10535049;28;20559;-76
2022/04/30 00:16:03;;;;;;;0.00;0.00;;;;;;;6.08;71.92;102856.25;10544097;28;20081;-77
2022/04/30 00:21:05;;;;;;;0.00;0.00;;;;;;;5.86;73.39;102861.34;10543755;28;20094;-76
2022/04/30 00:26:07;;;;;;;0.00;0.00;;;;;;;5.62;74.99;102861.22;10544168;28;20040;-76
2022/04/30 00:31:08;;;;;;;0.00;0.00;;;;;;;5.40;75.47;102857.00;10543495;28;20097;-76
2022/04/30 00:36:11;;;;;;;0.00;0.00;;;;;;;5.31;75.03;102853.75;10542052;28;20028;-77
2022/04/30 00:41:13;;;;;;;0.00;0.00;;;;;;;5.21;74.65;102846.97;10543072;28;20040;-76
2022/04/30 00:46:16;;;;;;;0.00;0.00;;;;;;;5.18;76.13;102845.84;10543292;28;20048;-76
2022/04/30 00:51:19;;;;;;;0.00;0.00;;;;;;;5.29;75.75;102847.59;10541123;28;20048;-76
2022/04/30 00:56:36;;;;;;;0.00;0.00;;;;;;;5.14;75.48;102836.16;10542602;28;20040;-76
2022/04/30 01:01:39;;;;;;;0.00;0.00;;;;;;;5.16;76.08;102837.19;10541947;28;20497;-76
2022/04/30 01:07:08;;;;;;;0.00;0.00;;;;;;;5.10;76.36;102844.38;10542089;28;20561;-76
2022/04/30 01:12:10;;;;;;;0.00;0.00;;;;;;;4.73;77.15;102832.97;10523423;28;20087;-76
2022/04/30 01:17:12;;;;;;;0.00;0.00;;;;;;;4.71;77.64;102829.44;10540875;28;20134;-76
2022/04/30 01:22:26;;;;;;;0.00;0.00;;;;;;;4.52;78.14;102831.22;10539835;28;20052;-76
2022/04/30 01:27:29;;;;;;;0.00;0.00;;;;;;;4.73;78.57;102820.19;10539930;28;20044;-77
2022/04/30 01:37:57;;;;;;;0.22;0.22;;;;;;;4.70;78.43;102817.41;10539735;28;20483;-77
2022/04/30 01:43:01;;;;;;;0.00;0.00;;;;;;;4.72;78.00;102815.88;10554667;28;20105;-76
2022/04/30 01:48:04;;;;;;;0.00;0.00;;;;;;;4.90;78.34;102821.56;10539520;28;20046;-76
2022/04/30 01:53:06;;;;;;;0.00;0.00;;;;;;;4.74;78.54;102822.00;10539065;28;20044;-76
2022/04/30 01:58:07;;;;;;;0.05;0.05;;;;;;;4.66;78.70;102809.38;10554227;28;20380;-76
2022/04/30 02:03:10;;;;;;;0.00;0.00;;;;;;;4.59;78.97;102805.44;10554080;28;20040;-76
2022/04/30 02:08:14;;;;;;;0.43;0.25;;;;;;;4.46;79.28;102806.13;10520080;28;20483;-76
2022/04/30 02:13:23;;;;;;;1.17;1.08;;;;;;;4.59;79.23;102795.22;10520001;28;20048;-76
2022/04/30 02:18:27;;;;;;;0.10;0.10;;;;;;;4.49;79.57;102790.16;10538323;28;20070;-76
2022/04/30 02:23:30;;;;;;;0.05;0.05;;;;;;;4.52;79.90;102791.31;10537940;28;20123;-77
2022/04/30 02:28:31;;;;;;;0.03;0.03;;;;;;;4.48;79.78;102783.25;10537615;28;20048;-76
2022/04/30 02:33:33;;;;;;;0.00;0.00;;;;;;;4.45;79.23;102778.81;10537228;28;20043;-76
2022/04/30 02:38:36;;;;;;;0.00;0.00;;;;;;;4.70;80.02;102781.66;10536625;28;20120;-76
2022/04/30 02:43:38;;;;;;;0.10;0.10;;;;;;;4.55;79.47;102786.41;10536807;28;20093;-77
2022/04/30 02:48:40;;;;;;;0.00;0.00;;;;;;;4.70;79.69;102781.66;10537841;28;20044;-76
2022/04/30 02:53:43;;;;;;;0.00;0.00;;;;;;;4.62;78.99;102780.16;10537463;28;20556;-76
2022/04/30 03:04:04;;;;;;;0.00;0.00;;;;;;;4.44;79.47;102762.59;10537901;28;20526;-76
2022/04/30 03:09:06;;;;;;;0.00;0.00;;;;;;;4.38;79.86;102762.09;10536766;28;20125;-76
2022/04/30 03:14:07;;;;;;;0.00;0.00;;;;;;;4.54;79.74;102753.13;10537109;28;20047;-76
2022/04/30 03:24:31;;;;;;;0.00;0.00;;;;;;;4.41;79.50;102741.03;10537030;28;20044;-76
2022/04/30 03:29:32;;;;;;;0.00;0.00;;;;;;;4.16;80.04;102739.06;10537133;28;20051;-77
2022/04/30 03:34:34;;;;;;;0.00;0.00;;;;;;;4.36;79.52;102740.66;10536805;28;20040;-77
2022/04/30 03:39:36;;;;;;;0.00;0.00;;;;;;;4.25;80.08;102742.34;10536887;28;20036;-76
2022/04/30 03:44:38;;;;;;;0.00;0.00;;;;;;;4.34;80.04;102739.66;10536698;28;20399;-75
2022/04/30 03:49:39;;;;;;;0.00;0.00;;;;;;;4.24;79.94;102734.56;10536515;28;20043;-76
2022/04/30 03:54:41;;;;;;;0.00;0.00;;;;;;;4.18;80.67;102741.72;10518086;28;20040;-76
2022/04/30 03:59:43;;;;;;;0.00;0.00;;;;;;;4.07;80.04;102728.09;10537204;28;20036;-76
2022/04/30 04:04:46;;;;;;;0.00;0.00;;;;;;;3.99;80.19;102740.19;10555415;28;20044;-77
2022/04/30 04:09:49;;;;;;;0.00;0.00;;;;;;;4.18;80.34;102737.50;10536650;28;20387;-77
2022/04/30 04:20:13;;;;;;;0.00;0.00;;;;;;;4.09;80.03;102750.41;10536012;28;20044;-77
2022/04/30 04:30:35;;;;;;;0.00;0.00;;;;;;;4.41;79.38;102744.50;10542508;28;20063;-76
2022/04/30 04:35:37;;;;;;;0.00;0.00;;;;;;;4.44;79.90;102749.81;10541772;28;20048;-77
2022/04/30 04:40:39;;;;;;;0.00;0.00;;;;;;;4.52;77.52;102759.75;10542684;28;20048;-76
2022/04/30 04:45:40;;;;;;;0.00;0.00;;;;;;;4.53;77.93;102753.88;10542336;28;20119;-76
2022/04/30 04:50:43;;;;;;;0.00;0.00;;;;;;;4.44;78.71;102767.69;10541781;28;20052;-75
2022/04/30 04:55:45;;;;;;;0.00;0.00;;;;;;;4.60;79.44;102768.94;10557363;28;20483;-75
2022/04/30 05:00:46;;;;;;;0.00;0.00;;;;;;;4.78;78.76;102773.72;10541991;28;20093;-74
2022/04/30 05:05:48;;;;;;;0.00;0.00;;;;;;;4.85;78.79;102770.91;10546368;28;20090;-78
2022/04/30 05:10:50;;;;;;;0.00;0.00;;;;;;;4.88;78.72;102782.25;10524095;28;20043;-76
2022/04/30 05:15:51;;;;;;;0.00;0.00;;;;;;;4.85;79.45;102776.00;10542153;28;20459;-75
2022/04/30 05:21:00;;;;;;;0.00;0.00;;;;;;;4.64;80.27;102781.19;10539812;28;20052;-76
2022/04/30 05:26:01;;;;;;;0.00;0.00;;;;;;;4.95;80.34;102778.53;10541312;28;20067;-78
2022/04/30 05:31:05;;;;;;;0.00;0.00;;;;;;;5.05;80.12;102773.34;10541624;28;20479;-76
2022/04/30 05:36:08;;;;;;;0.47;0.47;;;;;;;5.30;80.14;102775.28;10540617;28;20518;-77
2022/04/30 05:41:09;;;;;;;0.00;0.00;;;;;;;5.50;79.96;102774.25;10539234;28;20492;-76
2022/04/30 05:46:13;;;;;;;0.00;0.00;;;;;;;5.61;79.60;102782.75;10539865;28;20059;-77
2022/04/30 05:51:16;;;;;;;1.17;0.20;;;;;;;5.86;79.63;102776.91;10540147;28;20044;-77
2022/04/30 05:56:17;;;;;;;0.15;0.10;;;;;;;5.90;79.57;102772.91;10540186;28;20048;-76
2022/04/30 06:01:26;;;;;;;1.65;0.40;;;;;;;6.17;79.69;102779.25;10539611;28;20441;-76
2022/04/30 06:06:28;;;;;;;0.47;0.40;;;;;;;6.39;79.02;102785.94;10520755;28;20062;-76
2022/04/30 06:11:29;;;;;;;3.40;0.47;;;;;;;6.82;78.53;102786.47;10543026;28;20117;-76
2022/04/30 06:16:32;;;;;;;2.13;1.13;;;;;;;6.70;78.05;102785.63;10540357;28;20044;-77
2022/04/30 06:21:33;;;;;;;0.10;0.10;;;;;;;7.04;77.81;102785.44;10534292;28;20117;-76
2022/04/30 06:26:35;;;;;;;1.75;1.05;;;;;;;6.98;77.63;102789.38;10537046;28;20090;-77
2022/04/30 06:31:37;;;;;;;1.02;0.32;;;;;;;7.58;78.00;102792.66;10535590;28;20056;-76
2022/04/30 06:36:39;;;;;;;0.03;0.03;;;;;;;7.55;75.88;102792.47;10537145;28;20036;-76
2022/04/30 06:41:41;;;;;;;0.10;0.10;;;;;;;7.94;75.28;102777.09;10537215;28;20043;-76
2022/04/30 06:46:42;;;;;;;1.52;1.42;;;;;;;8.00;74.52;102786.88;10537010;28;20487;-76
2022/04/30 06:51:45;;;;;;;1.08;0.57;;;;;;;8.37;73.04;102781.59;10571425;28;20055;-77
2022/04/30 07:02:12;;;;;;;4.53;1.65;;;;;;;8.33;71.25;102770.25;10557972;28;20560;-76
2022/04/30 07:07:15;;;;;;;1.02;0.85;;;;;;;9.01;68.81;102768.53;10567608;28;20040;-76
2022/04/30 07:12:17;;;;;;;1.08;0.75;;;;;;;9.14;69.96;102768.47;10542215;28;20445;-77
2022/04/30 07:17:19;;;;;;;0.57;0.52;;;;;;;9.58;68.75;102760.81;10543321;28;20047;-76
2022/04/30 07:22:21;;;;;;;0.40;0.40;;;;;;;9.86;67.55;102762.47;10536850;28;20495;-75
2022/04/30 07:27:22;;;;;;;0.08;0.05;;;;;;;10.09;65.29;102767.22;10537230;28;20085;-76
2022/04/30 07:32:24;;;;;;;0.20;0.20;;;;;;;10.82;62.93;102763.59;10536679;28;20044;-76
2022/04/30 07:37:26;;;;;;;0.28;0.22;;;;;;;10.74;62.41;102764.88;10538664;28;20040;-76
2022/04/30 07:42:27;;;;;;;0.57;0.45;;;;;;;10.89;61.55;102770.00;10536759;28;20372;-76
2022/04/30 07:47:29;;;;;;;0.35;0.35;;;;;;;11.05;60.06;102766.53;10551600;28;20495;-80
2022/04/30 07:52:32;;;;;;;0.57;0.52;;;;;;;11.66;58.74;102758.53;10563841;28;20483;-77
2022/04/30 07:57:36;;;;;;;0.00;0.00;;;;;;;12.63;56.89;102748.66;10541949;28;20035;-75
2022/04/30 08:02:37;;;;;;;0.75;0.63;;;;;;;11.47;54.83;102742.94;10559804;28;20097;-77
2022/04/30 08:07:39;;;;;;;1.10;1.00;;;;;;;11.83;56.00;102743.94;10561939;28;20032;-78
2022/04/30 08:12:41;;;;;;;0.20;0.20;;;;;;;12.11;53.94;102736.66;10561686;28;20043;-76
2022/04/30 08:17:43;;;;;;;1.35;0.90;;;;;;;12.21;52.47;102736.31;10555284;28;20040;-79
2022/04/30 08:22:44;;;;;;;0.00;0.00;;;;;;;13.45;49.68;102736.81;10527502;28;20074;-76
2022/04/30 08:27:46;;;;;;;0.00;0.00;;;;;;;14.24;47.50;102725.44;10542449;28;20085;-75
2022/04/30 08:32:48;;;;;;;0.57;0.28;;;;;;;13.49;46.91;102733.56;10557254;28;20056;-76
2022/04/30 08:37:50;;;;;;;0.28;0.17;;;;;;;12.90;46.28;102732.63;10557397;28;20123;-78
2022/04/30 08:42:51;;;;;;;0.68;0.35;;;;;;;13.16;44.81;102731.22;10541275;28;20395;-77
2022/04/30 08:47:54;;;;;;;0.00;0.00;;;;;;;13.77;40.60;102722.69;10541148;28;20032;-78
2022/04/30 08:52:57;;;;;;;0.00;0.00;;;;;;;14.15;44.33;102719.88;10542405;28;20483;-76
2022/04/30 08:58:02;;;;;;;0.88;0.43;;;;;;;13.11;42.08;102722.38;10558491;28;20044;-78
2022/04/30 09:03:04;;;;;;;0.08;0.08;;;;;;;14.53;36.58;102712.72;10543714;28;20044;-76
2022/04/30 09:08:06;;;;;;;1.05;0.57;;;;;;;13.74;41.65;102708.69;10558648;28;20080;-78
2022/04/30 09:13:10;;;;;;;0.00;0.00;;;;;;;14.42;39.49;102708.81;10557902;28;20333;-76
2022/04/30 09:18:13;;;;;;;0.30;0.30;;;;;;;14.02;39.21;102702.06;10542390;28;20055;-78
2022/04/30 09:23:26;;;;;;;0.00;0.00;;;;;;;15.53;38.75;102697.28;10546635;28;20082;-78
2022/04/30 09:28:30;;;;;;;0.00;0.00;;;;;;;14.96;39.08;102692.72;10542085;28;20499;-76
2022/04/30 09:33:31;;;;;;;0.00;0.00;;;;;;;15.49;39.68;102676.34;10543277;28;20047;-75
2022/04/30 09:38:36;;;;;;;0.00;0.00;;;;;;;16.59;35.95;102678.13;10542517;28;20064;-76
2022/04/30 09:43:38;;;;;;;0.30;0.17;;;;;;;14.28;43.24;102678.06;10541665;28;20063;-76
2022/04/30 09:54:00;;;;;;;1.05;0.65;;;;;;;12.72;49.86;102680.94;10541872;28;20047;-77
2022/04/30 09:59:11;;;;;;;6.85;1.00;;;;;;;12.32;49.13;102673.09;10555533;28;20068;-77
2022/04/30 10:04:15;;;;;;;0.10;0.10;;;;;;;12.46;49.23;102662.53;10554131;28;20068;-76
2022/04/30 10:09:20;;;;;;;0.00;0.00;;;;;;;12.83;45.81;102671.97;10538691;28;20153;-77
2022/04/30 10:14:47;;;;;;;0.00;0.00;;;;;;;12.72;48.14;102668.00;10541555;28;20068;-76
2022/04/30 10:19:56;;;;;;;0.00;0.00;;;;;;;13.77;46.61;102657.91;10554163;28;20078;-75
2022/04/30 10:24:59;;;;;;;0.00;0.00;;;;;;;14.18;44.29;102655.19;10561003;28;20044;-76
2022/04/30 10:30:02;;;;;;;0.00;0.00;;;;;;;14.38;45.82;102655.94;10550773;28;20375;-76
2022/04/30 10:35:06;;;;;;;0.00;0.00;;;;;;;14.05;45.39;102652.94;10572892;28;20066;-75
2022/04/30 10:40:08;;;;;;;0.32;0.32;;;;;;;13.08;47.79;102650.66;10534350;28;20092;-78
2022/04/30 10:45:15;;;;;;;0.00;0.00;;;;;;;13.28;48.08;102643.75;10556629;28;20462;-75
2022/04/30 10:50:17;;;;;;;0.00;0.00;;;;;;;13.54;48.02;102641.41;10557973;28;20040;-75
2022/04/30 10:55:20;;;;;;;0.00;0.00;;;;;;;12.87;49.76;102635.06;10546972;28;20437;-77
2022/04/30 11:00:22;;;;;;;0.47;0.22;;;;;;;13.10;50.56;102627.44;10560617;28;20101;-75
2022/04/30 11:05:24;;;;;;;0.00;0.00;;;;;;;13.29;48.90;102627.38;10551290;28;20097;-76
2022/04/30 11:10:26;;;;;;;0.47;0.35;;;;;;;12.75;51.29;102629.38;10561346;28;20044;-76
2022/04/30 11:15:27;;;;;;;0.00;0.00;;;;;;;12.95;52.18;102628.53;10574971;28;20487;-76
2022/04/30 11:20:32;;;;;;;2.10;0.55;;;;;;;12.62;53.53;102627.94;10535932;28;20044;-77
2022/04/30 11:25:39;;;;;;;0.00;0.00;;;;;;;12.54;54.77;102619.84;10551733;28;20051;-77
2022/04/30 11:30:43;;;;;;;0.43;0.35;;;;;;;12.50;53.82;102617.91;10524297;28;20051;-77
2022/04/30 11:35:53;;;;;;;0.00;0.00;;;;;;;12.65;54.26;102618.59;10556346;28;20069;-76
2022/04/30 11:41:07;;;;;;;0.32;0.32;;;;;;;12.94;55.83;102616.41;10561606;28;20105;-76
2022/04/30 11:46:09;;;;;;;0.00;0.00;;;;;;;12.98;54.74;102608.00;10539449;28;20138;-76
2022/04/30 11:51:27;;;;;;;1.75;0.50;;;;;;;12.73;53.26;102612.88;10561591;28;20473;-78
2022/04/30 11:56:30;;;;;;;2.10;0.10;;;;;;;12.63;51.84;102603.84;10549821;28;20052;-75
2022/04/30 12:01:35;;;;;;;0.00;0.00;;;;;;;13.12;50.80;102598.22;10538561;28;20073;-77
2022/04/30 12:06:39;;;;;;;0.13;0.13;;;;;;;12.96;51.66;102599.28;10557747;28;20096;-75
2022/04/30 12:11:50;;;;;;;0.32;0.30;;;;;;;12.62;50.72;102596.91;10552444;28;20044;-77
2022/04/30 12:16:54;;;;;;;0.00;0.00;;;;;;;13.77;48.48;102592.25;10548614;28;20065;-75
2022/04/30 12:27:21;;;;;;;0.00;0.00;;;;;;;13.61;50.70;102585.59;10551973;28;20086;-75
2022/04/30 12:32:52;;;;;;;0.38;0.20;;;;;;;13.27;48.51;102587.63;10535791;28;20475;-75
2022/04/30 12:38:01;;;;;;;0.13;0.13;;;;;;;12.74;49.61;102576.75;10515535;28;20067;-75
2022/04/30 12:43:04;;;;;;;2.05;0.82;;;;;;;13.14;46.95;102575.00;10533509;28;20406;-78
2022/04/30 12:48:09;;;;;;;0.70;0.43;;;;;;;13.15;47.61;102569.00;10517040;28;20513;-76
2022/04/30 12:53:11;;;;;;;0.00;0.00;;;;;;;14.38;46.94;102559.13;10543200;28;20063;-76
2022/04/30 12:58:13;;;;;;;0.00;0.00;;;;;;;14.07;45.92;102555.41;10497697;28;20097;-81
2022/04/30 13:03:14;;;;;;;0.10;0.10;;;;;;;13.89;48.22;102561.63;10512135;28;20083;-81
2022/04/30 13:08:16;;;;;;;1.42;0.10;;;;;;;13.59;45.82;102557.00;10539956;28;20119;-81
2022/04/30 13:13:34;;;;;;;0.00;0.00;;;;;;;13.52;45.57;102552.41;10538761;28;20048;-79
2022/04/30 13:18:36;;;;;;;0.35;0.28;;;;;;;13.46;45.94;102547.00;10520646;28;20052;-81
2022/04/30 13:23:37;;;;;;;0.05;0.05;;;;;;;13.85;45.48;102549.41;10539118;28;20273;-81
2022/04/30 13:28:39;;;;;;;0.00;0.00;;;;;;;14.57;45.33;102538.22;10538560;28;20097;-81
2022/04/30 13:33:40;;;;;;;1.05;0.45;;;;;;;13.65;46.08;102535.66;10538122;28;20091;-81
2022/04/30 13:38:45;;;;;;;0.17;0.05;;;;;;;14.01;45.14;102534.44;10520697;28;20078;-80
2022/04/30 13:43:46;;;;;;;0.00;0.00;;;;;;;13.67;45.58;102535.72;10537655;28;20048;-80
2022/04/30 13:48:49;;;;;;;0.55;0.38;;;;;;;14.15;46.41;102530.66;10537798;28;20055;-80
2022/04/30 13:53:50;;;;;;;1.42;0.50;;;;;;;13.32;46.78;102529.16;10536709;28;20317;-81
2022/04/30 13:58:52;;;;;;;0.20;0.20;;;;;;;13.69;45.86;102526.31;10538923;28;20054;-80
2022/04/30 14:03:54;;;;;;;0.28;0.22;;;;;;;14.08;46.95;102510.53;10535247;28;20043;-81
2022/04/30 14:08:56;;;;;;;2.05;1.15;;;;;;;13.18;47.23;102512.19;10536901;28;20126;-80
2022/04/30 14:19:17;;;;;;;;;;;;;;;13.36;45.41;102508.59;10536996;28;20048;-80
2022/04/30 14:24:19;;;;;;;0.00;0.00;;;;;;;13.89;46.60;102507.22;10535010;28;19967;-81
2022/04/30 14:29:28;;;;;;;1.48;0.75;;;;;;;13.37;48.22;102505.16;10535765;28;20051;-81
2022/04/30 14:34:30;;;;;;;0.00;0.00;;;;;;;14.01;47.32;102499.03;10535901;28;20044;-80
2022/04/30 14:39:32;;;;;;;0.00;0.00;;;;;;;14.12;48.18;102491.66;10535992;28;20040;-80
2022/04/30 14:44:42;;;;;;;0.00;0.00;;;;;;;14.10;45.56;102496.78;10540967;28;20063;-80
2022/04/30 14:49:44;;;;;;;2.05;0.77;;;;;;;13.39;46.75;102493.19;10553202;28;20136;-81
2022/04/30 14:54:46;;;;;;;0.17;0.15;;;;;;;13.58;47.36;102487.03;10547161;28;20036;-80
2022/04/30 14:59:50;;;;;;;0.10;0.10;;;;;;;13.52;49.39;102492.84;10567213;28;20542;-80
2022/04/30 15:04:52;;;;;;;0.73;0.50;;;;;;;13.11;48.90;102489.47;10562666;28;20093;-80
2022/04/30 15:09:56;;;;;;;0.00;0.00;;;;;;;14.07;48.68;102475.06;10565088;28;20470;-80
2022/04/30 15:14:58;;;;;;;0.00;0.00;;;;;;;13.77;48.42;102479.19;10554974;28;20422;-81
2022/04/30 15:20:00;;;;;;;0.00;0.00;;;;;;;13.90;45.99;102471.84;10566590;28;20126;-80
2022/04/30 15:25:03;;;;;;;0.00;0.00;;;;;;;13.33;47.55;102481.75;10571359;28;20036;-81
2022/04/30 15:30:06;;;;;;;0.00;0.00;;;;;;;13.20;47.32;102473.44;10576230;28;20051;-81
2022/04/30 15:35:08;;;;;;;0.75;0.40;;;;;;;13.06;48.92;102467.72;10570668;28;20051;-81
2022/04/30 15:40:11;;;;;;;2.22;1.15;;;;;;;13.13;49.42;102472.31;10540404;28;20036;-80
2022/04/30 15:45:12;;;;;;;0.13;0.13;;;;;;;12.89;50.02;102467.91;10529995;28;20051;-80
2022/04/30 15:55:39;;;;;;;0.00;0.00;;;;;;;13.18;47.55;102463.03;10538922;28;20101;-81
2022/04/30 16:00:41;;;;;;;1.52;1.10;;;;;;;12.73;48.33;102453.47;10539830;28;20047;-80
2022/04/30 16:05:42;;;;;;;0.00;0.00;;;;;;;12.85;48.48;102455.63;10534051;28;20095;-81
2022/04/30 16:10:44;;;;;;;1.67;0.55;;;;;;;12.96;48.29;102461.25;10531339;28;20089;-80
2022/04/30 16:15:47;;;;;;;0.65;0.45;;;;;;;12.70;49.40;102451.59;10532858;28;20048;-81
2022/04/30 16:20:48;;;;;;;6.93;1.35;;;;;;;12.81;50.91;102446.88;10530983;28;20097;-81
2022/04/30 16:25:51;;;;;;;1.05;0.60;;;;;;;12.69;50.68;102448.97;10530115;28;20051;-80
2022/04/30 16:30:53;;;;;;;2.63;0.80;;;;;;;12.51;50.37;102438.72;10573841;28;20403;-81
2022/04/30 16:35:55;;;;;;;0.38;0.10;;;;;;;12.46;51.58;102440.25;10562161;28;20444;-81
2022/04/30 16:40:57;;;;;;;0.10;0.10;;;;;;;12.45;50.61;102438.47;10576778;28;20096;-80
2022/04/30 16:46:02;;;;;;;1.55;0.32;;;;;;;12.40;50.63;102440.84;10560731;28;20467;-80
2022/04/30 17:02:08;;;;;;;5.57;1.80;;;;;;;11.97;52.51;102437.25;10555915;28;20040;-81
2022/04/30 17:07:16;;;;;;;0.28;0.20;;;;;;;12.05;53.03;102437.63;10565564;28;20051;-81
2022/04/30 17:12:18;;;;;;;0.13;0.13;;;;;;;12.06;52.21;102435.09;10575280;28;20043;-81
2022/04/30 17:17:22;;;;;;;0.00;0.00;;;;;;;12.15;53.00;102444.06;10577267;28;20453;-80
2022/04/30 17:22:23;;;;;;;0.80;0.52;;;;;;;11.79;53.62;102439.88;10573436;28;20574;-80
2022/04/30 17:27:27;;;;;;;1.73;1.17;;;;;;;11.87;54.27;102440.22;10546328;28;20059;-80
2022/04/30 17:37:57;;;;;;;0.23;0.20;;;;;;;11.63;53.96;102448.63;10532142;28;20454;-80
2022/04/30 17:42:59;;;;;;;0.28;0.17;;;;;;;11.62;55.84;102431.34;10537689;28;20047;-80
2022/04/30 17:48:01;;;;;;;0.52;0.38;;;;;;;11.51;55.73;102441.19;10572540;28;20090;-80
2022/04/30 17:53:04;;;;;;;1.92;1.40;;;;;;;11.55;54.75;102439.63;10550175;28;20067;-80
2022/04/30 17:58:05;;;;;;;1.35;0.68;;;;;;;11.43;54.58;102448.53;10542157;28;20498;-81
2022/04/30 18:03:07;;;;;;;0.20;0.13;;;;;;;11.34;55.33;102450.72;10537466;28;20098;-81
2022/04/30 18:08:13;;;;;;;0.75;0.65;;;;;;;11.31;55.34;102450.56;10521293;28;20040;-80
2022/04/30 18:13:16;;;;;;;0.13;0.13;;;;;;;11.32;55.56;102460.06;10553028;28;20092;-80
2022/04/30 18:18:18;;;;;;;0.00;0.00;;;;;;;11.46;55.71;102454.69;10558757;28;20039;-80
2022/04/30 18:23:21;;;;;;;2.13;1.02;;;;;;;11.22;56.83;102450.09;10555548;28;20039;-81
2022/04/30 18:28:22;;;;;;;0.47;0.38;;;;;;;11.11;56.97;102457.31;10532198;28;20452;-80
2022/04/30 18:33:25;;;;;;;0.00;0.00;;;;;;;11.21;56.34;102453.50;10533248;28;20524;-80
2022/04/30 18:38:30;;;;;;;0.00;0.00;;;;;;;11.00;57.96;102464.53;10536564;28;20086;-80
2022/04/30 18:43:32;;;;;;;0.00;0.00;;;;;;;10.99;58.25;102465.34;10535015;28;20048;-80
2022/04/30 18:48:33;;;;;;;0.28;0.28;;;;;;;11.20;57.32;102467.22;10534651;28;20036;-80
2022/04/30 18:53:35;;;;;;;0.00;0.00;;;;;;;11.22;57.68;102471.66;10533182;28;20036;-80
2022/04/30 19:03:57;;;;;;;0.00;0.00;;;;;;;10.78;60.25;102472.91;10534224;28;20040;-80
2022/04/30 19:09:01;;;;;;;0.00;0.00;;;;;;;10.88;59.63;102472.56;10511543;28;20073;-79
2022/04/30 19:14:06;;;;;;;0.00;0.00;;;;;;;10.69;60.12;102478.47;10549313;28;20552;-80
2022/04/30 19:19:07;;;;;;;0.00;0.00;;;;;;;10.55;61.19;102480.38;10535940;28;20452;-80
2022/04/30 19:24:09;;;;;;;0.00;0.00;;;;;;;10.73;60.08;102477.84;10533627;28;20036;-80
2022/04/30 19:29:13;;;;;;;0.00;0.00;;;;;;;10.66;61.11;102478.34;10534032;28;20109;-80
2022/04/30 19:34:14;;;;;;;0.10;0.10;;;;;;;10.42;61.29;102478.84;10533455;28;20048;-81
2022/04/30 19:39:19;;;;;;;0.00;0.00;;;;;;;10.27;62.22;102470.28;10530811;28;20083;-80
2022/04/30 19:44:21;;;;;;;0.00;0.00;;;;;;;10.36;61.72;102473.34;10517649;28;20044;-76
2022/04/30 19:49:22;;;;;;;0.00;0.00;;;;;;;10.40;62.02;102477.88;10538536;28;20115;-76
2022/04/30 19:54:24;;;;;;;0.00;0.00;;;;;;;10.39;62.35;102468.38;10520072;28;20055;-76
2022/04/30 19:59:25;;;;;;;0.00;0.00;;;;;;;10.41;61.47;102474.50;10523442;28;20040;-76
2022/04/30 20:04:27;;;;;;;0.00;0.00;;;;;;;10.66;61.56;102468.03;10546720;28;20101;-77
2022/04/30 20:09:31;;;;;;;0.00;0.00;;;;;;;10.54;61.27;102473.44;10546377;28;20438;-76
2022/04/30 20:19:52;;;;;;;0.00;0.00;;;;;;;10.24;62.97;102465.88;10546056;28;20052;-75
2022/04/30 20:24:56;;;;;;;0.00;0.00;;;;;;;10.12;64.85;102473.81;10550323;28;20098;-76
2022/04/30 20:29:57;;;;;;;0.00;0.00;;;;;;;10.32;63.11;102473.97;10545447;28;20113;-76
2022/04/30 20:40:39;;;;;;;0.00;0.00;;;;;;;10.65;62.11;102463.69;10544464;28;20090;-76
2022/04/30 20:46:10;;;;;;;0.00;0.00;;;;;;;10.21;63.68;102467.38;10552150;28;20498;-76
2022/04/30 20:51:14;;;;;;;0.05;0.05;;;;;;;9.72;65.25;102471.66;10543571;28;20044;-76
2022/04/30 20:56:15;;;;;;;0.65;0.32;;;;;;;9.76;64.24;102468.47;10541388;28;20082;-76
2022/04/30 21:01:28;;;;;;;0.00;0.00;;;;;;;9.86;64.22;102474.13;10541229;28;20071;-76
2022/04/30 21:06:29;;;;;;;0.00;0.00;;;;;;;10.16;63.63;102470.59;10499597;28;20041;-75
2022/04/30 21:11:31;;;;;;;0.00;0.00;;;;;;;10.56;61.56;102473.50;10498849;28;20052;-76
2022/04/30 21:16:33;;;;;;;0.00;0.00;;;;;;;10.46;62.35;102475.59;10498573;28;20052;-76
2022/04/30 21:21:34;;;;;;;0.00;0.00;;;;;;;10.43;62.17;102480.63;10509726;28;20040;-76
2022/04/30 21:26:39;;;;;;;1.80;1.55;;;;;;;10.28;64.54;102480.66;10540930;28;20047;-76
2022/04/30 21:31:41;;;;;;;0.00;0.00;;;;;;;10.05;64.56;102473.44;10539530;28;20101;-76
2022/04/30 21:36:44;;;;;;;0.70;0.70;;;;;;;10.04;65.02;102472.53;10541029;28;20055;-76
2022/04/30 21:41:55;;;;;;;0.08;0.08;;;;;;;10.42;63.88;102472.81;10540565;28;20078;-76
2022/04/30 21:46:57;;;;;;;0.00;0.00;;;;;;;10.34;62.69;102464.66;10540509;28;20377;-76
2022/04/30 21:51:59;;;;;;;0.00;0.00;;;;;;;10.38;63.06;102471.78;10555609;28;20040;-76
2022/04/30 22:02:21;;;;;;;0.00;0.00;;;;;;;10.13;63.69;102455.00;10541094;28;20047;-76
2022/04/30 22:07:22;;;;;;;0.10;0.10;;;;;;;9.42;66.56;102468.31;10540488;28;20052;-76
2022/04/30 22:12:24;;;;;;;0.40;0.40;;;;;;;9.02;70.80;102469.50;10539518;28;20536;-76
2022/04/30 22:17:28;;;;;;;0.05;0.05;;;;;;;9.17;69.41;102461.78;10539240;28;20507;-76
2022/04/30 22:22:29;;;;;;;0.00;0.00;;;;;;;9.43;67.35;102463.22;10537405;28;20040;-76
2022/04/30 22:27:31;;;;;;;0.45;0.45;;;;;;;9.60;66.05;102455.56;10527315;28;20054;-76
2022/04/30 22:32:34;;;;;;;0.00;0.00;;;;;;;9.81;65.73;102467.03;10562249;28;20487;-74
2022/04/30 22:37:36;;;;;;;0.00;0.00;;;;;;;9.61;66.38;102454.78;10548747;28;20048;-76
2022/04/30 22:42:49;;;;;;;0.00;0.00;;;;;;;9.30;67.65;102455.63;10561294;28;20055;-76
2022/04/30 22:47:51;;;;;;;0.65;0.30;;;;;;;9.27;67.16;102458.06;10538919;28;20497;-76
2022/04/30 22:52:53;;;;;;;0.10;0.10;;;;;;;9.48;67.01;102456.69;10538681;28;20055;-75
2022/04/30 22:57:55;;;;;;;0.00;0.00;;;;;;;9.57;66.63;102463.13;10521517;28;20085;-77
2022/04/30 23:02:56;;;;;;;0.20;0.20;;;;;;;9.47;67.35;102460.06;10539056;28;20443;-75
2022/04/30 23:07:58;;;;;;;0.00;0.00;;;;;;;9.43;68.27;102463.22;10538814;28;20550;-76
2022/04/30 23:18:23;;;;;;;0.00;0.00;;;;;;;9.17;69.22;102460.09;10465115;28;20538;-76
2022/04/30 23:23:28;;;;;;;0.75;0.22;;;;;;;9.17;69.04;102454.97;10536472;28;20043;-74
2022/04/30 23:28:30;;;;;;;0.00;0.00;;;;;;;9.38;68.05;102456.97;10552517;28;20044;-75
2022/04/30 23:33:32;;;;;;;0.00;0.00;;;;;;;9.75;66.43;102448.69;10536125;28;20518;-78
2022/04/30 23:38:33;;;;;;;0.00;0.00;;;;;;;9.77;65.79;102449.66;10538433;28;20047;-77
2022/04/30 23:43:35;;;;;;;0.30;0.20;;;;;;;9.15;69.71;102443.69;10536911;28;20152;-77
2022/04/30 23:48:37;;;;;;;0.00;0.00;;;;;;;9.20;68.72;102439.69;10523588;28;20036;-77
2022/04/30 23:53:39;;;;;;;0.00;0.00;;;;;;;9.70;66.84;102437.25;10535842;28;20048;-77
2022/04/30 23:58:40;;;;;;;0.00;0.00;;;;;;;9.86;66.01;102438.09;10537946;28;20431;-76
